Flight Track Log - Related Links

Times and Time Zones

All times are in EDT time to prevent confusion due to time zone crossing. See the UAL262 flight status page for this flight to view local times or setup timezone preferences in your user account.

Time Position Orientation Groundspeed Altitude Reporting Facility
EDT Latitude Longitude Course Direction KTS MPH feet Rate Location/Type
Tue 02:21:15 AM 47.4258 -122.3089 90° East 174 200 1,400  Level Seattle Center
Tue 02:22:04 AM 47.3839 -122.3092 180° South 173 199 3,000 1,517 Climbing Seattle Center
Tue 02:22:42 AM 47.3506 -122.3106 182° South 188 216 3,600 1,758 Climbing Seattle Center
Tue 02:23:43 AM 47.3131 -122.2311 125° Southeast 276 318 5,900 2,430 Climbing Seattle Center
Tue 02:24:00 AM 47.4167 -121.5568 90° East  Level FlightAware Approximate
Tue 02:24:43 AM 47.3558 -122.1281 58° Northeast 300 345 8,500  Level Seattle Center
Tue 02:25:00 AM 47.4168 -121.3702 90° East  Level FlightAware Approximate
Tue 02:25:44 AM 47.4053 -122.0219 55° Northeast 314 361 10,600  Level Seattle Center
Tue 02:26:00 AM 47.4167 -121.1835 90° East  Level FlightAware Approximate
Tue 02:26:44 AM 47.4306 -121.8739 76° East 366 421 11,500  Level Seattle Center
Tue 02:27:45 AM 47.4297 -121.7211 90° East 373 429 14,800 2,529 Climbing Seattle Center
Tue 02:28:45 AM 47.4278 -121.5794 91° East 350 403 16,600 1,289 Climbing Seattle Center
Tue 02:29:46 AM 47.4256 -121.4194 91° East 395 455 17,400 1,377 Climbing Seattle Center
Tue 02:30:47 AM 47.4225 -121.2597 92° East 398 458 19,400 1,488 Climbing Seattle Center
Tue 02:31:47 AM 47.4197 -121.0928 91° East 411 473 20,400 1,140 Climbing Seattle Center
Tue 02:32:48 AM 47.4169 -120.9194 91° East 426 490 21,700 1,388 Climbing Seattle Center
Tue 02:33:48 AM 47.4031 -120.7533 97° East 437 503 23,200 1,686 Climbing Seattle Center
Tue 02:34:49 AM 47.3753 -120.5914 104° East 413 475 25,100 1,636 Climbing Seattle Center
Tue 02:35:49 AM 47.3478 -120.4297 104° East 408 470 26,500 1,438 Climbing Seattle Center
Tue 02:36:50 AM 47.3203 -120.2667 104° East 410 472 28,000 1,190 Climbing Seattle Center
Tue 02:37:50 AM 47.2881 -120.1072 107° East 409 471 28,900 446 Climbing Seattle Center
Tue 02:38:51 AM 47.2372 -119.9556 116° Southeast 411 473 28,900  Level Seattle Center
Tue 02:39:51 AM 47.1869 -119.7961 115° Southeast 425 489 28,900  Level Seattle Center
Tue 02:40:51 AM 47.1314 -119.6378 117° Southeast 434 499 28,900 198 Level Seattle Center
Tue 02:41:52 AM 47.0747 -119.4767 117° Southeast 443 510 29,300 694 Climbing Seattle Center
Tue 02:42:52 AM 47.0089 -119.2789 116° Southeast 451 519 30,300 843 Climbing Seattle Center
Tue 02:43:53 AM 46.9561 -119.1136 115° Southeast 451 519 31,000 843 Climbing Seattle Center
Tue 02:44:53 AM 46.9006 -118.9442 116° Southeast 460 529 32,000 793 Climbing Seattle Center
Tue 02:45:54 AM 46.8464 -118.7792 116° Southeast 456 525 32,600 645 Climbing Seattle Center
Tue 02:46:54 AM 46.7931 -118.6111 115° Southeast 457 526 33,300 550 Climbing Seattle Center
Tue 02:47:54 AM 46.7569 -118.4358 107° East 464 534 33,700 645 Climbing Seattle Center
Tue 02:48:55 AM 46.7606 -118.2400 88° East 485 558 34,600 645 Climbing Seattle Center
Tue 02:49:55 AM 46.7639 -118.0500 88° East 477 549 35,000 150 Climbing Seattle Center
Tue 02:50:55 AM 46.7692 -117.8594 88° East 474 545 34,900 -50 Descending Seattle Center
Tue 02:51:56 AM 46.7731 -117.6683 88° East 475 547 34,900 50 Level Seattle Center
Tue 02:52:56 AM 46.7753 -117.4739 89° East 481 554 35,000 50 Climbing Seattle Center
Tue 02:53:57 AM 46.7781 -117.2825 89° East 478 550 35,000 -50 Level Seattle Center
Tue 02:54:57 AM 46.7800 -117.0931 89° East 473 544 34,900 -50 Descending Seattle Center
Tue 02:55:57 AM 46.7831 -116.9033 89° East 473 544 34,900  Level Seattle Center
Tue 02:56:58 AM 46.7853 -116.7117 89° East 475 547 34,900  Level Seattle Center
Tue 02:57:58 AM 46.7864 -116.5192 89° East 477 549 34,900 50 Level Seattle Center
Tue 02:58:58 AM 46.7878 -116.3261 89° East 479 551 35,000  Climbing Seattle Center
Tue 02:59:59 AM 46.7878 -116.1339 90° East 478 550 34,900  Descending Seattle Center
Tue 03:00:59 AM 46.7897 -115.9394 89° East 480 552 35,000  Climbing Seattle Center
Tue 03:01:59 AM 46.7897 -115.7467 90° East 478 550 34,900  Descending Seattle Center
Tue 03:03:00 AM 46.7903 -115.5531 90° East 478 550 35,000 50 Climbing Seattle Center
Tue 03:04:00 AM 46.7906 -115.3311 90° East 478 550 35,000  Level Seattle Center
Tue 03:05:00 AM 46.7900 -115.1381 90° East 478 550 35,000  Level Seattle Center
Tue 03:06:01 AM 46.7883 -114.9489 91° East 472 543 35,000 -50 Level Seattle Center
Tue 03:07:01 AM 46.7867 -114.7578 91° East 473 544 34,900 -50 Descending Seattle Center
Tue 03:08:01 AM 46.7858 -114.5686 90° East 470 541 34,900 50 Level Seattle Center
Tue 03:09:02 AM 46.7839 -114.3786 91° East 471 542 35,000  Climbing Seattle Center
Tue 03:10:02 AM 46.7817 -114.1892 91° East 470 541 34,900 -50 Descending Seattle Center
Tue 03:11:02 AM 46.7786 -113.9994 91° East 470 541 34,900  Level Seattle Center
Tue 03:12:02 AM 46.7753 -113.8122 91° East 466 536 34,900  Level Seattle Center
Tue 03:13:03 AM 46.7722 -113.6236 91° East 468 539 34,900 41 Level Seattle Center
Tue 03:14:29 AM 46.7683 -113.3586 91° East 468 539 35,000 41 Climbing Salt Lake Center
Tue 03:15:30 AM 46.7647 -113.1717 92° East 465 535 35,000 -50 Level Salt Lake Center
Tue 03:16:30 AM 46.7603 -112.9864 92° East 459 528 34,900 -50 Descending Salt Lake Center
Tue 03:17:31 AM 46.7564 -112.7839 92° East 452 520 34,900  Level Salt Lake Center
Tue 03:18:31 AM 46.7519 -112.5981 92° East 458 527 34,900  Level Salt Lake Center
Tue 03:19:32 AM 46.7469 -112.4133 92° East 459 528 34,900  Level Salt Lake Center
Tue 03:20:33 AM 46.7417 -112.2272 92° East 461 531 34,900 50 Level Salt Lake Center
Tue 03:21:33 AM 46.7342 -112.0367 93° East 469 540 35,000 50 Climbing Salt Lake Center
Tue 03:22:34 AM 46.7289 -111.8492 92° East 470 541 35,000  Level Salt Lake Center
Tue 03:23:34 AM 46.7228 -111.6636 93° East 467 537 35,000 -50 Level Salt Lake Center
Tue 03:24:35 AM 46.7158 -111.4811 93° East 462 532 34,900 -50 Descending Salt Lake Center
Tue 03:25:35 AM 46.7100 -111.3022 93° East 454 522 34,900  Level Salt Lake Center
Tue 03:26:36 AM 46.7011 -111.0822 93° East 457 526 34,900 50 Level Salt Lake Center
Tue 03:27:36 AM 46.6931 -110.8922 93° East 470 541 35,000  Climbing Salt Lake Center
Tue 03:28:37 AM 46.6853 -110.7067 93° East 466 536 34,900  Descending Salt Lake Center
Tue 03:29:37 AM 46.6778 -110.5292 93° East 457 526 35,000 50 Climbing Salt Lake Center
Tue 03:30:38 AM 46.6697 -110.3528 94° East 456 525 35,000  Level Salt Lake Center
Tue 03:31:38 AM 46.6603 -110.1417 94° East 466 536 35,000  Level Salt Lake Center
Tue 03:32:39 AM 46.6514 -109.9614 94° East 466 536 35,000  Level Salt Lake Center
Tue 03:33:39 AM 46.6422 -109.7817 94° East 465 535 35,000  Level Salt Lake Center
Tue 03:34:40 AM 46.6311 -109.5706 94° East 465 535 35,000  Level Salt Lake Center
Tue 03:35:40 AM 46.6233 -109.3889 94° East 469 540 35,000  Level Salt Lake Center
Tue 03:36:40 AM 46.6139 -109.2089 94° East 466 536 35,000  Level Salt Lake Center
Tue 03:37:41 AM 46.6025 -109.0292 95° East 467 537 35,000  Level Salt Lake Center
Tue 03:38:41 AM 46.5903 -108.8183 95° East 469 540 35,000  Level Salt Lake Center
Tue 03:39:42 AM 46.5803 -108.6367 95° East 472 543 35,000  Level Salt Lake Center
Tue 03:40:42 AM 46.5678 -108.4558 96° East 471 542 35,000  Level Salt Lake Center
Tue 03:41:43 AM 46.5542 -108.2439 95° East 471 542 35,000  Level Salt Lake Center
Tue 03:42:43 AM 46.5422 -108.0619 95° East 472 543 35,000  Level Salt Lake Center
Tue 03:43:43 AM 46.5303 -107.8778 95° East 477 549 35,000  Level Salt Lake Center
Tue 03:44:44 AM 46.5172 -107.6950 96° East 476 548 35,000  Level Salt Lake Center
Tue 03:45:44 AM 46.5028 -107.4828 96° East 472 543 35,000  Level Salt Lake Center
Tue 03:46:45 AM 46.4897 -107.3003 96° East 472 543 35,000  Level Salt Lake Center
Tue 03:47:45 AM 46.4761 -107.1169 96° East 475 547 35,000  Level Salt Lake Center
Tue 03:48:45 AM 46.4597 -106.9053 96° East 475 547 35,000  Level Salt Lake Center
Tue 03:49:46 AM 46.4456 -106.7228 96° East 475 547 35,000  Level Salt Lake Center
Tue 03:50:46 AM 46.4292 -106.5375 97° East 479 551 35,000  Level Salt Lake Center
Tue 03:51:46 AM 46.4150 -106.3558 96° East 477 549 35,000  Level Salt Lake Center
Tue 03:52:47 AM 46.3964 -106.1408 97° East 480 552 35,000  Level Salt Lake Center
Tue 03:53:47 AM 46.3811 -105.9600 97° East 476 548 35,000  Level Salt Lake Center
Tue 03:54:47 AM 46.3639 -105.7758 98° East 478 550 35,000  Level Salt Lake Center
Tue 03:55:48 AM 46.3419 -105.5617 98° East 480 552 35,000  Level Salt Lake Center
Tue 03:56:48 AM 46.3242 -105.3778 98° East 481 554 35,000  Level Salt Lake Center
Tue 03:57:49 AM 46.3078 -105.1947 97° East 481 554 35,000  Level Salt Lake Center
Tue 03:58:49 AM 46.2903 -105.0125 98° East 479 551 35,000  Level Salt Lake Center
Tue 03:59:49 AM 46.2672 -104.7989 99° East 480 552 35,000 -50 Level Salt Lake Center
Tue 04:00:50 AM 46.2492 -104.6172 98° East 480 552 34,900 -50 Descending Salt Lake Center
Tue 04:01:50 AM 46.2283 -104.4178 99° East 479 551 34,900  Level Salt Lake Center
Tue 04:02:50 AM 46.2086 -104.2297 99° East 478 550 34,900  Level Salt Lake Center
Tue 04:03:51 AM 46.1883 -104.0417 99° East 477 549 34,900  Level Salt Lake Center
Tue 04:04:51 AM 46.1678 -103.8517 99° East 480 552 34,900 50 Level Salt Lake Center
Tue 04:05:51 AM 46.1461 -103.6594 99° East 485 558 35,000 66 Climbing Salt Lake Center
Tue 04:06:22 AM 46.1389 -103.5878 98° East 485 558 35,000  Level Minneapolis Center
Tue 04:06:52 AM 46.1247 -103.4689 100° East 485 558 35,000 -67 Level Salt Lake Center
Tue 04:07:52 AM 46.1031 -103.2753 99° East 488 562 34,900 -50 Descending Salt Lake Center
Tue 04:08:52 AM 46.0808 -103.0833 99° East 489 563 34,900  Level Salt Lake Center
Tue 04:09:24 AM 46.0744 -103.0064 97° East 494 568 34,900  Level Minneapolis Center
Tue 04:10:24 AM 46.0514 -102.8147 100° East 493 567 34,900 50 Level Minneapolis Center
Tue 04:11:24 AM 46.0194 -102.5942 102° East 485 558 35,000 50 Climbing Minneapolis Center
Tue 04:12:25 AM 45.9922 -102.4025 101° East 486 559 35,000  Level Minneapolis Center
Tue 04:13:25 AM 45.9678 -102.2078 100° East 490 564 35,000  Level Minneapolis Center
Tue 04:14:25 AM 45.9447 -102.0147 100° East 491 565 35,000  Level Minneapolis Center
Tue 04:15:26 AM 45.9194 -101.8231 101° East 491 565 35,000  Level Minneapolis Center
Tue 04:16:26 AM 45.8972 -101.6250 99° East 495 570 35,000  Level Minneapolis Center
Tue 04:17:27 AM 45.8706 -101.4314 101° East 496 571 35,000  Level Minneapolis Center
Tue 04:18:27 AM 45.8439 -101.2369 101° East 498 573 35,000  Level Minneapolis Center
Tue 04:19:27 AM 45.8211 -101.0403 99° East 499 574 35,000  Level Minneapolis Center
Tue 04:20:28 AM 45.7936 -100.8453 101° East 498 573 35,000  Level Minneapolis Center
Tue 04:21:28 AM 45.7656 -100.6492 102° East 500 575 35,000  Level Minneapolis Center
Tue 04:22:29 AM 45.7392 -100.4539 101° East 500 575 35,000  Level Minneapolis Center
Tue 04:23:29 AM 45.7289 -100.2558 94° East 497 572 35,000  Level Minneapolis Center
Tue 04:24:29 AM 45.7194 -100.0617 94° East 490 564 35,000  Level Minneapolis Center
Tue 04:25:30 AM 45.7125 -99.8672 93° East 488 562 35,000 -50 Level Minneapolis Center
Tue 04:26:30 AM 45.7022 -99.6739 94° East 485 558 34,900  Descending Minneapolis Center
Tue 04:27:31 AM 45.6925 -99.4814 94° East 484 557 35,000 50 Climbing Minneapolis Center
Tue 04:28:31 AM 45.6828 -99.2889 94° East 484 557 35,000  Level Minneapolis Center
Tue 04:29:31 AM 45.6736 -99.0983 94° East 482 555 35,000  Level Minneapolis Center
Tue 04:30:32 AM 45.6633 -98.9064 94° East 481 554 35,000  Level Minneapolis Center
Tue 04:31:32 AM 45.6531 -98.7156 94° East 482 555 35,000  Level Minneapolis Center
Tue 04:32:33 AM 45.6414 -98.5253 95° East 481 554 35,000  Level Minneapolis Center
Tue 04:33:33 AM 45.6300 -98.3358 95° East 480 552 35,000  Level Minneapolis Center
Tue 04:34:34 AM 45.6203 -98.1486 94° East 477 549 35,000  Level Minneapolis Center
Tue 04:35:34 AM 45.6067 -97.9744 96° East 476 548 35,000  Level Minneapolis Center
Tue 04:36:34 AM 45.5947 -97.7853 95° East 478 550 35,000  Level Minneapolis Center
Tue 04:37:35 AM 45.5819 -97.5958 95° East 479 551 35,000  Level Minneapolis Center
Tue 04:38:35 AM 45.5700 -97.4081 95° East 477 549 35,000  Level Minneapolis Center
Tue 04:39:36 AM 45.5569 -97.2225 96° East 472 543 35,000  Level Minneapolis Center
Tue 04:40:36 AM 45.5431 -97.0350 96° East 475 547 35,000  Level Minneapolis Center
Tue 04:41:37 AM 45.5297 -96.8481 96° East 474 545 35,000  Level Minneapolis Center
Tue 04:42:37 AM 45.5153 -96.6589 96° East 479 551 35,000  Level Minneapolis Center
Tue 04:43:38 AM 45.5003 -96.4697 96° East 481 554 35,000  Level Minneapolis Center
Tue 04:44:38 AM 45.4861 -96.2819 96° East 479 551 35,000  Level Minneapolis Center
Tue 04:45:39 AM 45.4686 -96.0550 96° East 480 552 35,000  Level Minneapolis Center
Tue 04:46:39 AM 45.4539 -95.8672 96° East 478 550 35,000  Level Minneapolis Center
Tue 04:47:40 AM 45.4372 -95.6811 97° East 475 547 35,000  Level Minneapolis Center
Tue 04:48:40 AM 45.4219 -95.4947 97° East 475 547 35,000  Level Minneapolis Center
Tue 04:49:41 AM 45.4061 -95.3089 97° East 474 545 35,000  Level Minneapolis Center
Tue 04:50:41 AM 45.3903 -95.1228 97° East 474 545 35,000  Level Minneapolis Center
Tue 04:51:42 AM 45.3731 -94.9372 97° East 473 544 35,000  Level Minneapolis Center
Tue 04:52:42 AM 45.3558 -94.7497 97° East 477 549 35,000  Level Minneapolis Center
Tue 04:53:43 AM 45.3406 -94.5814 97° East 477 549 35,000  Level Minneapolis Center
Tue 04:54:43 AM 45.3231 -94.3972 98° East 474 545 35,000  Level Minneapolis Center
Tue 04:55:44 AM 45.3058 -94.2144 98° East 469 540 35,000  Level Minneapolis Center
Tue 04:56:44 AM 45.2881 -94.0322 98° East 468 539 35,000  Level Minneapolis Center
Tue 04:57:45 AM 45.2694 -93.8494 98° East 468 539 35,000  Level Minneapolis Center
Tue 04:58:46 AM 45.2511 -93.6653 98° East 471 542 35,000  Level Minneapolis Center
Tue 04:59:46 AM 45.2319 -93.4847 99° East 465 535 35,000 -50 Level Minneapolis Center
Tue 05:00:47 AM 45.2133 -93.3022 98° East 466 536 34,900  Descending Minneapolis Center
Tue 05:01:47 AM 45.1931 -93.1194 99° East 466 536 35,000 50 Climbing Minneapolis Center
Tue 05:02:48 AM 45.1733 -92.9361 99° East 469 540 35,000  Level Minneapolis Center
Tue 05:03:48 AM 45.1533 -92.7536 99° East 469 540 35,000  Level Minneapolis Center
Tue 05:04:49 AM 45.1328 -92.5711 99° East 470 541 35,000  Level Minneapolis Center
Tue 05:05:49 AM 45.1128 -92.3883 99° East 470 541 35,000  Level Minneapolis Center
Tue 05:06:50 AM 45.0878 -92.1692 99° East 472 543 35,000  Level Minneapolis Center
Tue 05:07:50 AM 45.0667 -91.9872 99° East 470 541 35,000  Level Minneapolis Center
Tue 05:08:51 AM 45.0456 -91.8069 99° East 468 539 35,000  Level Minneapolis Center
Tue 05:09:51 AM 45.0239 -91.6278 100° East 465 535 35,000  Level Minneapolis Center
Tue 05:10:52 AM 45.0050 -91.4836 100° East 467 537 35,000  Level Minneapolis Center
Tue 05:11:52 AM 44.9742 -91.2656 101° East 469 540 35,000  Level Minneapolis Center
Tue 05:12:53 AM 44.9194 -91.1006 115° Southeast 473 544 35,000  Level Minneapolis Center
Tue 05:15:00 AM 44.8373 -90.8789 118° Southeast  Level FlightAware Approximate
Tue 05:16:37 AM 44.7008 -90.4764 118° Southeast 476 548 35,000  Level Chicago Center
Tue 05:17:38 AM 44.6406 -90.3089 117° Southeast 479 551 35,000  Level Chicago Center
Tue 05:18:38 AM 44.5800 -90.1417 117° Southeast 482 555 35,000  Level Chicago Center
Tue 05:19:39 AM 44.5186 -89.9742 117° Southeast 483 556 35,000  Level Chicago Center
Tue 05:20:39 AM 44.4581 -89.8056 117° Southeast 485 558 35,000  Level Chicago Center
Tue 05:21:57 AM 44.3839 -89.6086 118° Southeast 486 559 35,000  Level Minneapolis Center
Tue 05:22:58 AM 44.3214 -89.4386 117° Southeast 490 564 35,000  Level Minneapolis Center
Tue 05:23:58 AM 44.2583 -89.2700 118° Southeast 488 562 35,000  Level Minneapolis Center
Tue 05:24:59 AM 44.1936 -89.1008 118° Southeast 492 566 35,000  Level Minneapolis Center
Tue 05:26:11 AM 44.1078 -88.8697 117° Southeast 500 575 35,000  Level Minneapolis Center
Tue 05:26:42 AM 44.0747 -88.7853 119° Southeast 504 580 35,000  Level Chicago Center
Tue 05:27:43 AM 44.0100 -88.6125 117° Southeast 502 578 35,000  Level Chicago Center
Tue 05:28:43 AM 43.9436 -88.4428 118° Southeast 497 572 35,000  Level Chicago Center
Tue 05:29:44 AM 43.8775 -88.2697 118° Southeast 502 578 35,000  Level Chicago Center
Tue 05:30:44 AM 43.8097 -88.0983 119° Southeast 502 578 35,000  Level Chicago Center
Tue 05:31:45 AM 43.7425 -87.9261 118° Southeast 505 581 35,000  Level Chicago Center
Tue 05:32:45 AM 43.6733 -87.7542 119° Southeast 507 583 35,000  Level Chicago Center
Tue 05:33:46 AM 43.6044 -87.5822 119° Southeast 509 586 35,000  Level Chicago Center
Tue 05:34:47 AM 43.5356 -87.4108 119° Southeast 509 586 35,000  Level Chicago Center
Tue 05:35:47 AM 43.4783 -87.2667 119° Southeast 512 589 35,000  Level Chicago Center
Tue 05:36:48 AM 43.3950 -87.0614 119° Southeast 513 590 35,000  Level Chicago Center
Tue 05:37:48 AM 43.3256 -86.8911 119° Southeast 513 590 35,000  Level Chicago Center
Tue 05:38:49 AM 43.2564 -86.7203 119° Southeast 511 588 35,000  Level Chicago Center
Tue 05:39:49 AM 43.1864 -86.5514 120° Southeast 512 589 35,000  Level Chicago Center
Tue 05:40:50 AM 43.1167 -86.3833 120° Southeast 511 588 35,000  Level Chicago Center
Tue 05:41:50 AM 43.0464 -86.2172 120° Southeast 510 587 35,000  Level Chicago Center
Tue 05:42:51 AM 42.9767 -86.0553 120° Southeast 510 587 35,000  Level Chicago Center
Tue 05:43:51 AM 42.9103 -85.8922 119° Southeast 510 587 35,000  Level Chicago Center
Tue 05:44:52 AM 42.8397 -85.7253 120° Southeast 513 590 35,000  Level Chicago Center
Tue 05:45:52 AM 42.7703 -85.5600 120° Southeast 508 585 35,000  Level Chicago Center
Tue 05:46:53 AM 42.6997 -85.3939 120° Southeast 508 585 35,000 -50 Level Chicago Center
Tue 05:47:53 AM 42.6281 -85.2297 121° Southeast 508 585 34,900  Descending Chicago Center
Tue 05:48:54 AM 42.5564 -85.0639 120° Southeast 510 587 35,000 50 Climbing Chicago Center
Tue 05:49:54 AM 42.4697 -84.8650 121° Southeast 512 589 35,000  Level Chicago Center
Tue 05:50:55 AM 42.3969 -84.6994 121° Southeast 512 589 35,000  Level Chicago Center
Tue 05:51:55 AM 42.3247 -84.5358 121° Southeast 509 586 35,000  Level Chicago Center
Tue 05:52:56 AM 42.2528 -84.3725 121° Southeast 508 585 35,000  Level Chicago Center
Tue 05:53:34 AM 42.2008 -84.2694 124° Southeast 512 589 35,000  Level Cleveland Center
Tue 05:54:34 AM 42.1311 -84.1056 120° Southeast 512 589 35,000  Level Cleveland Center
Tue 05:55:34 AM 42.0567 -83.9450 122° Southeast 512 589 35,000  Level Cleveland Center
Tue 05:56:34 AM 41.9839 -83.7872 122° Southeast 512 589 35,000  Level Cleveland Center
Tue 05:57:34 AM 41.9092 -83.6244 122° Southeast 512 589 35,000  Level Cleveland Center
Tue 05:58:34 AM 41.8364 -83.4594 121° Southeast 512 589 35,000  Level Cleveland Center
Tue 05:59:34 AM 41.7628 -83.3058 123° Southeast 512 589 35,000  Level Cleveland Center
Tue 06:00:34 AM 41.6767 -83.1603 128° Southeast 502 578 35,000  Level Cleveland Center
Tue 06:01:34 AM 41.5922 -83.0208 129° Southeast 497 572 35,000  Level Cleveland Center
Tue 06:02:34 AM 41.5053 -82.8789 129° Southeast 499 574 35,000  Level Cleveland Center
Tue 06:03:34 AM 41.4164 -82.7375 130° Southeast 493 567 35,000  Level Cleveland Center
Tue 06:04:34 AM 41.3294 -82.5961 129° Southeast 493 567 35,000  Level Cleveland Center
Tue 06:05:34 AM 41.2422 -82.4553 129° Southeast 493 567 35,000  Level Cleveland Center
Tue 06:06:34 AM 41.1547 -82.3150 130° Southeast 493 567 35,000  Level Cleveland Center
Tue 06:07:34 AM 41.0672 -82.1722 129° Southeast 493 567 35,000  Level Cleveland Center
Tue 06:08:34 AM 40.9894 -82.0519 131° Southeast 488 562 35,000  Level Cleveland Center
Tue 06:09:34 AM 40.9017 -81.9156 130° Southeast 488 562 35,000 -50 Level Cleveland Center
Tue 06:10:34 AM 40.8133 -81.7764 130° Southeast 488 562 34,900  Descending Cleveland Center
Tue 06:11:34 AM 40.7272 -81.6381 129° Southeast 494 568 35,000 50 Climbing Cleveland Center
Tue 06:12:34 AM 40.6389 -81.4997 130° Southeast 489 563 35,000  Level Cleveland Center
Tue 06:13:34 AM 40.5544 -81.3619 129° Southeast 489 563 35,000  Level Cleveland Center
Tue 06:14:34 AM 40.4636 -81.2244 131° Southeast 489 563 35,000  Level Cleveland Center
Tue 06:15:34 AM 40.3622 -81.0653 130° Southeast 506 582 35,000  Level Cleveland Center
Tue 06:16:34 AM 40.2708 -80.9258 131° Southeast 506 582 35,000  Level Cleveland Center
Tue 06:17:34 AM 40.1794 -80.7922 132° Southeast 506 582 35,000  Level Cleveland Center
Tue 06:18:34 AM 40.0881 -80.6508 130° Southeast 506 582 35,000  Level Cleveland Center
Tue 06:19:34 AM 39.9964 -80.5125 131° Southeast 506 582 35,000  Level Cleveland Center
Tue 06:20:34 AM 39.9147 -80.3639 126° Southeast 506 582 35,000 -100 Level Cleveland Center
Tue 06:21:34 AM 39.8372 -80.2072 123° Southeast 512 589 34,800 -1,165 Descending Cleveland Center
Tue 06:24:00 AM 39.6533 -79.8394 123° Southeast 508 585 31,000 -1,623 Descending Washington Center
Tue 06:25:01 AM 39.5756 -79.6839 123° Southeast 508 585 29,200 -2,017 Descending Washington Center
Tue 06:25:59 AM 39.5056 -79.5322 121° Southeast 503 579 27,000 -1,831 Descending Washington Center
Tue 06:26:59 AM 39.4692 -79.3606 105° East 481 554 25,600 -1,488 Descending Washington Center
Tue 06:28:00 AM 39.4406 -79.2142 104° East 481 554 24,000 -1,574 Descending Washington Center
Tue 06:29:01 AM 39.4136 -79.0597 103° East 457 526 22,400 -1,950 Descending Washington Center
Tue 06:30:00 AM 39.3886 -78.9133 102° East 435 501 20,100 -2,067 Descending Washington Center
Tue 06:31:00 AM 39.3611 -78.7725 104° East 416 479 18,300 -1,785 Descending Washington Center
Tue 06:32:01 AM 39.3375 -78.6372 103° East 395 455 16,500 -1,765 Descending Washington Center
Tue 06:32:59 AM 39.3136 -78.5131 104° East 375 432 14,800 -1,700 Descending Washington Center
Tue 06:34:01 AM 39.2917 -78.3861 103° East 363 418 13,100 -1,550 Descending Washington Center
Tue 06:34:59 AM 39.2439 -78.2850 121° Southeast 341 392 11,700 -1,462 Descending Washington Center
Tue 06:36:00 AM 39.2150 -78.1822 110° East 317 365 10,200 -1,475 Descending Washington Center
Tue 06:37:01 AM 39.2172 -78.0697 89° East 298 343 8,700 -1,488 Descending Washington Center
Tue 06:38:01 AM 39.2172 -77.9625 90° East 298 343 7,200 -1,525 Descending Washington Center
Tue 06:38:59 AM 39.2153 -77.8581 91° East 298 343 5,700 -1,109 Descending Washington Center
Tue 06:40:00 AM 39.2108 -77.7561 93° East 288 331 5,000 -625 Descending Washington Center
Tue 06:41:23 AM 39.2167 -77.6000 87° East 280 322 4,200 -797 Descending Potomac TRACON
Tue 06:42:23 AM 39.2000 -77.5167 104° East 274 315 3,100 -600 Descending Potomac TRACON
Tue 06:43:23 AM 39.1333 -77.4667 150° Southeast 247 284 3,000 -100 Descending Potomac TRACON

Login

Don't have an account? Register now (free) for customized features, flight alerts, and more!